»·PEaware :: WAT169 KSAN-KDEN

WAT169 :: KSAN-KDEN

FLIGHT INFORMATION

Flight Status: Arrived
Operator:
Walker Air Transport
More flights by this operator :: More flights under this callsign
Pilot: Marty P. (27464)
Aircraft: BOEING 737-800
(B738)
More flights by this aircraft type
Origin: KSAN San Diego Intl-Lindbergh
United States
Destination: KDEN Denver Intl
United States
More flights between these airports :: More routes between these airports
Route: ZZOOO2 MTBAL EED J236 TBC SHNPS TBARR1
File this flight plan on PilotEdge
Remarks:
Altitude:
(Current/Filed)
39,000ft
Speed:
(Current/Filed)
500kts
Departed: 25-Oct-20 02:36 PM
Arrived: 25-Oct-20 04:14 PM
Distance/Time
Traveled:
740nm/1:38
Distance/Time
To Go:
Arrived

Flight Plot

Page will automatically refresh every two minutes.

Flight plan parsing failed; only flown route is shown


Map Options




Map Legend


Flown Route
Filed Route
Departure Airport
Arrival Airport
Navaid (VOR, NDB)
Fix

Horizontal Profiles

Position Reports

Time Latitude Longitude Heading Altitude Ground
Speed
25-Oct-20 13:46 32.732517 -117.206490 178 27ft 0kts
25-Oct-20 13:47 32.732517 -117.206490 178 27ft 0kts
25-Oct-20 13:48 32.732518 -117.206490 178 27ft 0kts
25-Oct-20 13:49 32.732518 -117.206490 178 27ft 0kts
25-Oct-20 13:50 32.732518 -117.206490 178 27ft 0kts
25-Oct-20 13:51 32.732518 -117.206490 178 27ft 0kts
25-Oct-20 13:52 32.732518 -117.206490 178 27ft 0kts
25-Oct-20 13:53 32.732518 -117.206490 178 27ft 0kts
25-Oct-20 13:54 32.732518 -117.206490 178 27ft 0kts
25-Oct-20 13:55 32.732518 -117.206490 178 27ft 0kts
25-Oct-20 13:56 32.732518 -117.206490 178 27ft 0kts
25-Oct-20 13:57 32.732518 -117.206490 178 27ft 0kts
25-Oct-20 13:58 32.732518 -117.206490 178 27ft 0kts
25-Oct-20 13:59 32.732518 -117.206490 178 27ft 0kts
25-Oct-20 14:00 32.732518 -117.206490 178 27ft 0kts
25-Oct-20 14:01 32.732518 -117.206490 178 27ft 0kts
25-Oct-20 14:02 32.732518 -117.206490 178 27ft 0kts
25-Oct-20 14:03 32.732518 -117.206490 178 27ft 0kts
25-Oct-20 14:04 32.732518 -117.206490 178 27ft 0kts
25-Oct-20 14:05 32.732518 -117.206490 178 27ft 0kts
25-Oct-20 14:06 32.732518 -117.206490 178 27ft 0kts
25-Oct-20 14:07 32.732518 -117.206490 178 27ft 0kts
25-Oct-20 14:08 32.732518 -117.206490 178 27ft 0kts
25-Oct-20 14:09 32.732518 -117.206490 178 27ft 0kts
25-Oct-20 14:10 32.732518 -117.206490 178 27ft 0kts
25-Oct-20 14:11 32.732518 -117.206490 178 27ft 0kts
25-Oct-20 14:12 32.732518 -117.206490 178 27ft 0kts
25-Oct-20 14:13 32.732616 -117.206492 178 27ft 2kts
25-Oct-20 14:14 32.733165 -117.206503 175 27ft 2kts
25-Oct-20 14:15 32.733285 -117.206011 82 27ft 4kts
25-Oct-20 14:16 32.734611 -117.205556 13 27ft 5kts
25-Oct-20 14:17 32.735090 -117.205155 50 27ft 0kts
25-Oct-20 14:18 32.735090 -117.205155 50 27ft 0kts
25-Oct-20 14:19 32.735090 -117.205155 50 27ft 0kts
25-Oct-20 14:20 32.735090 -117.205155 50 27ft 0kts
25-Oct-20 14:21 32.735090 -117.205155 50 27ft 0kts
25-Oct-20 14:22 32.735090 -117.205155 50 27ft 0kts
25-Oct-20 14:23 32.735090 -117.205155 50 27ft 0kts
25-Oct-20 14:24 32.735090 -117.205155 50 27ft 0kts
25-Oct-20 14:25 32.735090 -117.205155 50 27ft 0kts
25-Oct-20 14:26 32.735244 -117.204936 50 27ft 10kts
25-Oct-20 14:27 32.735664 -117.202599 106 27ft 14kts
25-Oct-20 14:28 32.734149 -117.196339 106 27ft 21kts
25-Oct-20 14:29 32.732183 -117.188225 106 27ft 30kts
25-Oct-20 14:30 32.730107 -117.179673 106 27ft 22kts
25-Oct-20 14:31 32.729540 -117.176817 77 27ft 0kts
25-Oct-20 14:32 32.729540 -117.176817 77 27ft 0kts
25-Oct-20 14:33 32.729564 -117.176686 77 27ft 4kts
25-Oct-20 14:35 32.730621 -117.177546 287 27ft 12kts
25-Oct-20 14:36 32.740833 -117.216803 286 790ft 174kts
25-Oct-20 14:37 32.755425 -117.281521 285 2648ft 239kts
25-Oct-20 14:38 32.713721 -117.319863 160 6466ft 256kts
25-Oct-20 14:39 32.655925 -117.265839 136 10034ft 280kts
25-Oct-20 14:40 32.624182 -117.167636 97 11495ft 376kts
25-Oct-20 14:41 32.612650 -117.035021 97 13887ft 415kts
25-Oct-20 14:42 32.607462 -116.897516 81 16759ft 425kts
25-Oct-20 14:43 32.653551 -116.770951 38 19229ft 430kts
25-Oct-20 14:44 32.760860 -116.709789 20 21444ft 434kts
25-Oct-20 14:45 32.872864 -116.654737 20 23481ft 441kts
25-Oct-20 14:46 32.986906 -116.598739 19 25166ft 451kts
25-Oct-20 14:47 33.102537 -116.539226 21 26639ft 461kts
25-Oct-20 14:48 33.220145 -116.477491 20 27958ft 470kts
25-Oct-20 14:49 33.338881 -116.413616 26 29623ft 469kts
25-Oct-20 14:50 33.435653 -116.308697 47 31076ft 476kts
25-Oct-20 14:51 33.517224 -116.183247 50 32301ft 479kts
25-Oct-20 14:52 33.596750 -116.054855 47 33377ft 481kts
25-Oct-20 14:53 33.685696 -115.934374 46 34270ft 485kts
25-Oct-20 14:53 33.760790 -115.834486 45 35140ft 484kts
25-Oct-20 14:54 33.850916 -115.714711 45 36031ft 485kts
25-Oct-20 14:55 33.941845 -115.593620 45 36798ft 488kts
25-Oct-20 14:56 34.033160 -115.471606 45 37620ft 487kts
25-Oct-20 14:57 34.121852 -115.352703 44 38828ft 476kts
25-Oct-20 14:58 34.212027 -115.231604 45 38752ft 492kts
25-Oct-20 14:59 34.304716 -115.106567 45 38716ft 506kts
25-Oct-20 15:00 34.399469 -114.978233 45 38716ft 516kts
25-Oct-20 15:01 34.495623 -114.847509 45 38716ft 524kts
25-Oct-20 15:02 34.592682 -114.715050 45 38716ft 530kts
25-Oct-20 15:03 34.690893 -114.580521 45 38716ft 534kts
25-Oct-20 15:04 34.778082 -114.433853 56 38716ft 540kts
25-Oct-20 15:05 34.853036 -114.274749 59 38716ft 542kts
25-Oct-20 15:06 34.924945 -114.113932 60 38752ft 542kts
25-Oct-20 15:07 34.996235 -113.952029 60 38806ft 543kts
25-Oct-20 15:08 35.067507 -113.788999 60 38808ft 546kts
25-Oct-20 15:09 35.138778 -113.625094 60 38808ft 547kts
25-Oct-20 15:10 35.209695 -113.461235 60 38807ft 548kts
25-Oct-20 15:11 35.281009 -113.295643 61 38807ft 549kts
25-Oct-20 15:12 35.351830 -113.130575 61 38855ft 548kts
25-Oct-20 15:13 35.422558 -112.964720 61 38889ft 549kts
25-Oct-20 15:14 35.493146 -112.798355 61 38889ft 551kts
25-Oct-20 15:15 35.563518 -112.631641 61 38878ft 552kts
25-Oct-20 15:16 35.633923 -112.463970 61 38854ft 554kts
25-Oct-20 15:17 35.704121 -112.296082 61 38835ft 555kts
25-Oct-20 15:18 35.774380 -112.127303 61 38835ft 554kts
25-Oct-20 15:19 35.844245 -111.958442 61 38834ft 554kts
25-Oct-20 15:20 35.913687 -111.789692 62 38835ft 554kts
25-Oct-20 15:21 35.982972 -111.620433 62 38835ft 555kts
25-Oct-20 15:22 36.052152 -111.450552 62 38771ft 558kts
25-Oct-20 15:23 36.119769 -111.279914 68 38767ft 558kts
25-Oct-20 15:24 36.194712 -111.112043 57 38771ft 557kts
25-Oct-20 15:25 36.274369 -110.946680 57 38765ft 560kts
25-Oct-20 15:26 36.354228 -110.780646 57 38761ft 563kts
25-Oct-20 15:27 36.434734 -110.613014 57 38762ft 565kts
25-Oct-20 15:28 36.515312 -110.444976 57 38758ft 568kts
25-Oct-20 15:29 36.595768 -110.277108 58 38744ft 569kts
25-Oct-20 15:30 36.676864 -110.108020 57 38737ft 570kts
25-Oct-20 15:31 36.757965 -109.938618 57 38765ft 571kts
25-Oct-20 15:32 36.839416 -109.768274 57 38772ft 573kts
25-Oct-20 15:33 36.921400 -109.596539 57 38772ft 575kts
25-Oct-20 15:34 37.003197 -109.424884 57 38771ft 576kts
25-Oct-20 15:35 37.084704 -109.253884 58 38770ft 576kts
25-Oct-20 15:36 37.167002 -109.081233 58 38762ft 576kts
25-Oct-20 15:37 37.249042 -108.908882 57 38738ft 577kts
25-Oct-20 15:38 37.331396 -108.735531 57 38735ft 578kts
25-Oct-20 15:39 37.413321 -108.562862 57 38733ft 579kts
25-Oct-20 15:40 37.495329 -108.389713 57 38734ft 581kts
25-Oct-20 15:41 37.577477 -108.216419 57 38737ft 581kts
25-Oct-20 15:42 37.659667 -108.042960 57 38821ft 580kts
25-Oct-20 15:43 37.739830 -107.873487 57 38844ft 582kts
25-Oct-20 15:44 37.822233 -107.699025 57 38845ft 584kts
25-Oct-20 15:45 37.904027 -107.525613 57 38874ft 585kts
25-Oct-20 15:46 37.984569 -107.354657 57 38881ft 587kts
25-Oct-20 15:47 38.067916 -107.178142 57 38881ft 587kts
25-Oct-20 15:48 38.154975 -107.005865 49 38877ft 585kts
25-Oct-20 15:49 38.257102 -106.845020 47 37046ft 585kts
25-Oct-20 15:50 38.358728 -106.689323 47 34645ft 564kts
25-Oct-20 15:51 38.459219 -106.535512 47 32669ft 571kts
25-Oct-20 15:52 38.560331 -106.380125 48 30669ft 571kts
25-Oct-20 15:53 38.661429 -106.224380 48 28665ft 568kts
25-Oct-20 15:54 38.761656 -106.070067 48 26662ft 562kts
25-Oct-20 15:55 38.860234 -105.918576 47 24639ft 535kts
25-Oct-20 15:56 38.952631 -105.775310 47 23022ft 512kts
25-Oct-20 15:57 39.042888 -105.634832 48 21515ft 506kts
25-Oct-20 15:58 39.131336 -105.496794 48 20046ft 493kts
25-Oct-20 15:59 39.215974 -105.362468 49 18336ft 468kts
25-Oct-20 16:00 39.281296 -105.225271 74 16127ft 435kts
25-Oct-20 16:01 39.304862 -105.077618 82 13908ft 414kts
25-Oct-20 16:02 39.325023 -104.944584 78 13819ft 339kts
25-Oct-20 16:03 39.347485 -104.837935 73 13486ft 288kts
25-Oct-20 16:04 39.373580 -104.743111 70 12571ft 283kts
25-Oct-20 16:05 39.421804 -104.671353 16 11900ft 266kts
25-Oct-20 16:06 39.493651 -104.669033 335 11894ft 253kts
25-Oct-20 16:07 39.565440 -104.665509 1 10783ft 259kts
25-Oct-20 16:08 39.630939 -104.663027 359 9387ft 214kts
25-Oct-20 16:09 39.685367 -104.662379 2 8296ft 186kts
25-Oct-20 16:10 39.735506 -104.661691 1 7288ft 170kts
25-Oct-20 16:11 39.779132 -104.661155 0 6444ft 153kts
25-Oct-20 16:12 39.821583 -104.660636 0 5622ft 152kts
25-Oct-20 16:13 39.847523 -104.660699 343 5444ft 19kts
25-Oct-20 16:14 39.849237 -104.661693 332 5444ft 0kts
25-Oct-20 16:15 39.851699 -104.662404 0 5444ft 17kts
25-Oct-20 16:16 39.855580 -104.662427 339 5444ft 12kts
25-Oct-20 16:17 39.856252 -104.667996 279 5444ft 27kts
25-Oct-20 16:18 39.858036 -104.671418 359 5444ft 0kts
25-Oct-20 16:19 39.858036 -104.671418 359 5444ft 0kts
25-Oct-20 16:20 39.858036 -104.671418 359 5444ft 0kts
25-Oct-20 16:21 39.858036 -104.671418 359 5444ft 0kts
25-Oct-20 16:22 39.858036 -104.671418 359 5444ft 0kts
25-Oct-20 16:23 39.858036 -104.671418 359 5444ft 0kts
25-Oct-20 16:24 39.858036 -104.671418 359 5444ft 0kts
25-Oct-20 16:25 39.858036 -104.671418 359 5444ft 0kts
25-Oct-20 16:27 39.858036 -104.671418 359 5444ft 0kts

Navigation Log

Ident Type
Flight plan parsing failed, navigation log unavailable